Time;durP1;ratioP1;P1;durP2;ratioP2;P2;SDS_P1;SDS_P2;PMS_P1;PMS_P2;Temp;Humidity;BMP_temperature;BMP_pressure;BME280_temperature;BME280_humidity;BME280_pressure;Samples;Min_cycle;Max_cycle;Signal;HPM_P1;HPM_P2
2023/06/17 00:00:41;;;;;;;87.30;79.68;;;;;;;20.01;100.00;100244.31;6093428;23;20022;-77
2023/06/17 00:03:10;;;;;;;95.85;87.68;;;;;;;20.21;100.00;100248.78;6093709;23;20030;-78
2023/06/17 00:05:41;;;;;;;96.78;88.30;;;;;;;20.12;100.00;100247.72;6093190;23;20050;-77
2023/06/17 00:08:08;;;;;;;86.95;79.22;;;;;;;20.35;100.00;100240.81;6093420;23;20025;-77
2023/06/17 00:10:34;;;;;;;92.97;84.10;;;;;;;20.02;100.00;100243.22;6094419;23;20649;-78
2023/06/17 00:13:02;;;;;;;105.82;96.65;;;;;;;19.98;100.00;100249.47;6093565;23;20029;-78
2023/06/17 00:15:32;;;;;;;102.00;92.97;;;;;;;20.17;100.00;100246.91;6093850;23;20866;-78
2023/06/17 00:18:00;;;;;;;92.15;83.70;;;;;;;20.31;100.00;100248.69;6093515;23;20528;-78
2023/06/17 00:20:27;;;;;;;105.32;96.40;;;;;;;20.18;100.00;100243.91;6094318;23;20020;-78
2023/06/17 00:22:55;;;;;;;77.07;70.13;;;;;;;20.20;100.00;100244.44;6093690;23;20026;-78
2023/06/17 00:25:23;;;;;;;81.88;74.18;;;;;;;20.03;100.00;100239.47;6093609;23;20026;-78
2023/06/17 00:27:49;;;;;;;85.97;78.18;;;;;;;20.19;100.00;100233.97;6093475;23;20373;-78
2023/06/17 00:30:16;;;;;;;94.53;86.50;;;;;;;20.20;100.00;100235.56;6093246;23;20018;-77
2023/06/17 00:32:43;;;;;;;83.70;75.25;;;;;;;20.06;100.00;100236.19;6094037;23;20473;-75
2023/06/17 00:35:10;;;;;;;82.13;74.78;;;;;;;19.94;100.00;100233.06;6094100;23;20465;-74
2023/06/17 00:37:37;;;;;;;93.95;85.97;;;;;;;20.20;100.00;100239.06;6093464;23;20218;-75
2023/06/17 00:40:09;;;;;;;78.85;71.38;;;;;;;20.24;100.00;100234.72;6093488;23;20018;-78
2023/06/17 00:42:36;;;;;;;78.82;71.45;;;;;;;20.11;100.00;100238.84;6093486;23;20038;-77
2023/06/17 00:45:04;;;;;;;83.10;75.40;;;;;;;20.22;100.00;100236.09;6093221;23;20030;-80
2023/06/17 00:47:31;;;;;;;84.65;76.63;;;;;;;20.25;100.00;100232.81;6093497;23;20029;-80
2023/06/17 00:49:59;;;;;;;96.53;88.18;;;;;;;19.86;100.00;100236.34;6093621;23;20368;-77
2023/06/17 00:52:28;;;;;;;95.60;87.10;;;;;;;20.07;100.00;100245.09;6093620;23;20369;-77
2023/06/17 00:54:55;;;;;;;87.75;79.82;;;;;;;19.90;100.00;100242.75;6093514;23;20417;-76
2023/06/17 00:57:23;;;;;;;86.45;78.15;;;;;;;19.48;100.00;100249.41;6093635;23;20097;-76
2023/06/17 00:59:50;;;;;;;97.93;88.85;;;;;;;19.57;100.00;100245.06;6092571;23;20033;-74
2023/06/17 01:02:17;;;;;;;97.72;89.03;;;;;;;19.75;100.00;100240.97;6092901;23;20034;-74
2023/06/17 01:04:46;;;;;;;101.13;92.20;;;;;;;19.82;100.00;100237.97;6093474;23;20023;-74
2023/06/17 01:07:35;;;;;;;91.00;82.50;;;;;;;19.49;100.00;100237.59;6093316;23;20026;-76
2023/06/17 01:10:07;;;;;;;93.80;85.65;;;;;;;19.41;100.00;100238.16;6092764;23;20018;-74
2023/06/17 01:12:36;;;;;;;;;;;;;;;19.54;100.00;100234.03;6094059;23;20461;-73
2023/06/17 01:15:03;;;;;;;85.43;77.38;;;;;;;19.64;100.00;100244.78;6093002;23;19921;-80
2023/06/17 01:17:30;;;;;;;98.85;89.85;;;;;;;19.80;100.00;100242.84;6093047;23;20026;-74
2023/06/17 01:19:59;;;;;;;96.28;87.65;;;;;;;19.71;100.00;100249.91;6092777;23;20022;-74
2023/06/17 01:22:27;;;;;;;94.13;86.18;;;;;;;19.77;100.00;100254.16;6092957;23;20081;-78
2023/06/17 01:25:01;;;;;;;82.10;74.07;;;;;;;19.81;100.00;100257.91;6092616;23;20122;-74
2023/06/17 01:27:28;;;;;;;82.43;74.13;;;;;;;19.89;100.00;100249.25;6092926;23;20029;-78
2023/06/17 01:29:55;;;;;;;83.40;75.70;;;;;;;19.86;100.00;100255.19;6092954;23;20114;-77
2023/06/17 01:32:22;;;;;;;87.13;78.95;;;;;;;20.02;100.00;100259.41;6093060;23;20022;-74
2023/06/17 01:34:56;;;;;;;93.68;85.15;;;;;;;20.00;100.00;100264.28;6093078;23;20364;-77
2023/06/17 01:37:29;;;;;;;86.70;77.70;;;;;;;19.91;100.00;100271.34;6092784;23;20026;-77
2023/06/17 01:40:01;;;;;;;103.80;94.97;;;;;;;19.85;100.00;100261.69;6092901;23;20029;-78
2023/06/17 01:42:32;;;;;;;98.27;89.17;;;;;;;19.70;100.00;100256.34;6093131;23;20372;-77
2023/06/17 01:45:00;;;;;;;101.00;92.10;;;;;;;19.81;100.00;100258.72;6093309;23;20368;-77
2023/06/17 01:47:27;;;;;;;106.97;97.10;;;;;;;19.82;100.00;100262.22;6092794;23;20023;-78
2023/06/17 01:49:58;;;;;;;106.88;97.18;;;;;;;20.09;100.00;100257.22;6092493;23;20023;-78
2023/06/17 01:52:25;;;;;;;112.32;102.53;;;;;;;20.22;100.00;100253.06;6093269;23;20078;-79
2023/06/17 01:54:52;;;;;;;114.97;105.07;;;;;;;19.87;100.00;100243.31;6093001;23;20499;-74
2023/06/17 01:57:20;;;;;;;105.53;95.90;;;;;;;20.10;100.00;100241.84;6092744;23;20033;-74
2023/06/17 01:59:47;;;;;;;100.53;91.18;;;;;;;20.04;100.00;100251.03;6092730;23;20034;-77
2023/06/17 02:02:14;;;;;;;103.88;94.43;;;;;;;20.33;100.00;100253.78;6092034;23;20022;-80
2023/06/17 02:04:42;;;;;;;102.40;93.10;;;;;;;20.23;100.00;100254.66;6092574;23;20029;-80
2023/06/17 02:07:10;;;;;;;112.03;102.25;;;;;;;20.36;100.00;100262.13;6092921;23;20361;-77
2023/06/17 02:09:38;;;;;;;109.85;100.32;;;;;;;20.38;100.00;100256.44;6092853;23;20033;-79
2023/06/17 02:12:06;;;;;;;106.43;97.05;;;;;;;20.36;100.00;100259.44;6092577;23;20018;-80
2023/06/17 02:14:34;;;;;;;107.65;98.10;;;;;;;20.34;100.00;100255.41;6092739;23;20022;-78
2023/06/17 02:17:02;;;;;;;128.90;118.55;;;;;;;20.41;100.00;100252.38;6092593;23;20019;-77
2023/06/17 02:19:31;;;;;;;116.93;107.13;;;;;;;20.29;100.00;100252.75;6092518;23;20118;-79
2023/06/17 02:21:58;;;;;;;113.43;103.63;;;;;;;20.18;100.00;100257.38;6092598;23;20029;-79
2023/06/17 02:24:25;;;;;;;123.30;112.70;;;;;;;19.98;100.00;100254.84;6093093;23;20044;-79
2023/06/17 02:26:52;;;;;;;96.28;87.15;;;;;;;19.82;100.00;100259.53;6092130;23;20447;-79
2023/06/17 02:29:19;;;;;;;110.90;100.90;;;;;;;20.03;100.00;100270.97;6092473;23;20027;-79
2023/06/17 02:31:48;;;;;;;110.80;101.10;;;;;;;20.21;100.00;100275.72;6092351;23;20457;-79
2023/06/17 02:34:16;;;;;;;101.40;91.80;;;;;;;20.36;100.00;100274.78;6092565;23;20461;-79
2023/06/17 02:36:43;;;;;;;99.28;90.22;;;;;;;20.30;100.00;100284.00;6092555;23;20053;-79
2023/06/17 02:39:10;;;;;;;94.65;86.03;;;;;;;20.40;100.00;100288.53;6092858;23;20026;-79
2023/06/17 02:41:37;;;;;;;110.45;100.65;;;;;;;20.53;100.00;100287.91;6092257;23;20093;-80
2023/06/17 02:44:05;;;;;;;105.07;95.85;;;;;;;20.61;100.00;100297.31;6092632;23;20022;-80
2023/06/17 02:46:31;;;;;;;99.97;91.20;;;;;;;20.36;100.00;100296.38;6092414;23;20029;-79
2023/06/17 02:49:00;;;;;;;103.10;93.80;;;;;;;20.40;100.00;100286.63;6092067;23;20026;-79
2023/06/17 02:51:27;;;;;;;99.55;90.07;;;;;;;20.46;100.00;100292.81;6092664;23;20028;-79
2023/06/17 02:53:54;;;;;;;95.32;86.82;;;;;;;20.34;100.00;100298.56;6092697;23;20354;-79
2023/06/17 02:56:21;;;;;;;96.70;88.18;;;;;;;20.55;100.00;100296.53;6092179;23;20033;-79
2023/06/17 02:58:49;;;;;;;94.13;85.53;;;;;;;20.56;100.00;100295.44;6092489;23;20042;-79
2023/06/17 03:01:16;;;;;;;94.55;86.75;;;;;;;20.42;100.00;100300.63;6092057;23;20029;-79
2023/06/17 03:03:44;;;;;;;95.38;87.18;;;;;;;20.29;100.00;100291.28;6093031;23;20026;-79
2023/06/17 03:06:14;;;;;;;99.68;90.57;;;;;;;20.27;100.00;100292.66;6092589;23;20026;-79
2023/06/17 03:08:42;;;;;;;96.85;88.20;;;;;;;20.09;100.00;100300.34;6092816;23;20132;-80
2023/06/17 03:11:09;;;;;;;99.88;91.22;;;;;;;20.26;100.00;100291.84;6091822;23;20030;-79
2023/06/17 03:13:36;;;;;;;92.90;84.90;;;;;;;20.41;100.00;100293.63;6092473;23;20053;-79
2023/06/17 03:16:05;;;;;;;94.97;86.78;;;;;;;20.15;100.00;100290.31;6093009;23;20353;-79
2023/06/17 03:18:32;;;;;;;100.63;92.15;;;;;;;20.00;100.00;100298.50;6092140;23;20029;-79
2023/06/17 03:21:00;;;;;;;100.40;92.00;;;;;;;20.22;100.00;100284.63;6092407;23;20440;-79
2023/06/17 03:23:28;;;;;;;94.68;86.18;;;;;;;20.13;100.00;100287.91;6092192;23;20026;-79
2023/06/17 03:25:55;;;;;;;98.72;90.05;;;;;;;20.09;100.00;100281.47;6091680;23;20029;-79
2023/06/17 03:28:21;;;;;;;98.90;90.38;;;;;;;20.24;100.00;100279.72;6091885;23;20022;-79
2023/06/17 03:30:48;;;;;;;99.75;91.25;;;;;;;20.26;100.00;100278.38;6092210;23;20026;-79
2023/06/17 03:33:15;;;;;;;99.07;90.63;;;;;;;20.29;100.00;100277.81;6091941;23;20081;-79
2023/06/17 03:35:42;;;;;;;95.88;87.72;;;;;;;20.47;100.00;100270.94;6092367;23;20535;-80
2023/06/17 03:38:10;;;;;;;94.70;86.40;;;;;;;20.38;100.00;100269.94;6092163;23;20019;-79
2023/06/17 03:40:38;;;;;;;99.35;90.40;;;;;;;20.49;100.00;100279.56;6094147;23;20421;-79
2023/06/17 03:43:05;;;;;;;101.95;93.47;;;;;;;20.48;100.00;100279.81;6093924;23;20085;-79
2023/06/17 03:45:35;;;;;;;102.65;93.93;;;;;;;20.45;100.00;100277.69;6094009;23;20461;-79
2023/06/17 03:48:02;;;;;;;102.65;94.05;;;;;;;20.32;100.00;100277.25;6093864;23;20081;-79
2023/06/17 03:50:29;;;;;;;102.32;93.65;;;;;;;20.22;100.00;100279.22;6094044;23;20030;-79
2023/06/17 03:52:56;;;;;;;109.40;100.45;;;;;;;20.39;100.00;100282.31;6094030;23;20026;-79
2023/06/17 03:55:23;;;;;;;102.28;93.18;;;;;;;20.50;100.00;100280.34;6093618;23;20029;-79
2023/06/17 03:57:52;;;;;;;104.40;95.68;;;;;;;20.47;100.00;100276.31;6093754;23;20022;-79
2023/06/17 04:00:19;;;;;;;95.88;87.60;;;;;;;20.59;100.00;100282.19;6093743;23;20022;-79
2023/06/17 04:02:47;;;;;;;99.00;90.50;;;;;;;20.56;100.00;100271.16;6093800;23;20030;-79
2023/06/17 04:05:15;;;;;;;99.03;90.80;;;;;;;20.67;100.00;100266.50;6094008;23;20056;-79
2023/06/17 04:07:42;;;;;;;99.05;90.75;;;;;;;20.78;100.00;100263.38;6093062;23;20093;-79
2023/06/17 04:10:10;;;;;;;97.68;89.47;;;;;;;21.01;100.00;100266.41;6093684;23;20022;-79
2023/06/17 04:12:38;;;;;;;96.93;88.68;;;;;;;20.87;100.00;100266.28;6093445;23;20022;-79
2023/06/17 04:15:08;;;;;;;97.93;89.82;;;;;;;20.91;100.00;100274.59;6092970;23;20022;-79
2023/06/17 04:17:36;;;;;;;108.93;99.85;;;;;;;20.83;100.00;100276.03;6093600;23;20453;-78
2023/06/17 04:20:10;;;;;;;99.80;91.53;;;;;;;20.55;100.00;100273.06;6093750;23;20022;-79
2023/06/17 04:22:38;;;;;;;99.82;91.53;;;;;;;20.72;100.00;100263.72;6094145;23;20361;-79
2023/06/17 04:25:07;;;;;;;99.65;91.38;;;;;;;20.85;100.00;100265.78;6094388;23;20109;-80
2023/06/17 04:27:34;;;;;;;101.65;93.25;;;;;;;20.80;100.00;100266.63;6093941;23;20504;-80
2023/06/17 04:30:01;;;;;;;101.43;92.93;;;;;;;20.88;100.00;100265.22;6093850;23;20022;-79
2023/06/17 04:32:30;;;;;;;105.15;96.55;;;;;;;20.87;100.00;100260.88;6093578;23;20046;-79
2023/06/17 04:34:57;;;;;;;100.95;92.35;;;;;;;20.94;100.00;100271.38;6093882;23;20033;-79
2023/06/17 04:37:25;;;;;;;102.63;93.93;;;;;;;20.71;100.00;100276.41;6093650;23;20087;-79
2023/06/17 04:39:53;;;;;;;99.03;90.80;;;;;;;21.05;100.00;100284.44;6093235;23;20022;-79
2023/06/17 04:42:19;;;;;;;101.45;92.97;;;;;;;21.04;100.00;100280.16;6092953;23;20085;-82
2023/06/17 04:44:48;;;;;;;98.25;90.07;;;;;;;21.10;100.00;100277.41;6092953;23;20028;-79
2023/06/17 04:47:16;;;;;;;93.18;85.35;;;;;;;21.33;100.00;100279.31;6092930;23;20046;-79
2023/06/17 04:49:45;;;;;;;90.72;83.13;;;;;;;21.18;100.00;100280.28;6092664;23;20199;-78
2023/06/17 04:52:12;;;;;;;90.20;82.78;;;;;;;21.49;100.00;100280.75;6092836;23;20031;-79
2023/06/17 04:54:39;;;;;;;86.15;78.93;;;;;;;21.61;100.00;100287.63;6092938;23;20423;-79
2023/06/17 04:57:06;;;;;;;82.95;76.03;;;;;;;21.49;100.00;100286.16;6093633;23;20535;-79
2023/06/17 04:59:33;;;;;;;82.45;75.57;;;;;;;21.44;100.00;100285.41;6092821;23;20030;-80
2023/06/17 05:02:01;;;;;;;85.95;78.93;;;;;;;21.31;100.00;100284.19;6092980;23;20117;-79
2023/06/17 05:04:27;;;;;;;84.03;76.97;;;;;;;21.40;100.00;100287.09;6092858;23;20426;-79
2023/06/17 05:06:56;;;;;;;89.03;81.72;;;;;;;21.41;100.00;100297.59;6092523;23;20532;-79
2023/06/17 05:12:03;;;;;;;89.60;81.95;;;;;;;21.25;100.00;100296.13;6082765;23;20049;-76
2023/06/17 05:14:30;;;;;;;90.00;82.72;;;;;;;21.40;100.00;100300.59;6092887;23;20368;-79
2023/06/17 05:16:57;;;;;;;87.03;79.95;;;;;;;21.16;100.00;100303.25;6092663;23;20025;-74
2023/06/17 05:19:24;;;;;;;92.43;84.82;;;;;;;20.95;100.00;100303.44;6091828;23;20029;-77
2023/06/17 05:21:51;;;;;;;90.18;82.75;;;;;;;20.97;100.00;100308.59;6092439;23;20026;-80
2023/06/17 05:24:19;;;;;;;90.35;82.68;;;;;;;21.53;100.00;100323.41;6092181;23;20018;-78
2023/06/17 05:26:46;;;;;;;84.93;77.93;;;;;;;21.73;100.00;100312.34;6092461;23;20028;-79
2023/06/17 05:29:13;;;;;;;81.55;74.75;;;;;;;21.24;100.00;100324.22;6093214;23;20476;-79
2023/06/17 05:31:40;;;;;;;84.25;77.38;;;;;;;22.01;100.00;100326.84;6093091;23;20069;-78
2023/06/17 05:34:07;;;;;;;76.95;70.65;;;;;;;21.51;100.00;100326.38;6092929;23;20019;-79
2023/06/17 05:36:33;;;;;;;83.70;76.85;;;;;;;21.56;100.00;100334.44;6093336;23;20030;-79
2023/06/17 05:39:00;;;;;;;75.45;69.55;;;;;;;21.83;100.00;100333.81;6093464;23;20038;-79
2023/06/17 05:41:28;;;;;;;80.25;73.88;;;;;;;21.73;100.00;100333.97;6093658;23;20360;-79
2023/06/17 05:43:55;;;;;;;82.72;76.32;;;;;;;21.66;100.00;100331.59;6093178;23;20027;-79
2023/06/17 05:46:22;;;;;;;83.07;76.57;;;;;;;21.65;100.00;100331.91;6093567;23;20026;-79
2023/06/17 05:48:49;;;;;;;84.93;78.47;;;;;;;22.01;100.00;100334.16;6092797;23;20240;-79
2023/06/17 05:51:16;;;;;;;77.43;71.10;;;;;;;21.71;100.00;100344.25;6093652;23;20480;-79
2023/06/17 05:53:43;;;;;;;76.00;70.07;;;;;;;21.72;100.00;100341.28;6092641;23;20364;-79
2023/06/17 05:56:11;;;;;;;83.03;76.32;;;;;;;21.83;100.00;100351.94;6091373;23;20026;-79
2023/06/17 05:58:40;;;;;;;83.57;77.18;;;;;;;21.70;100.00;100345.34;6091206;23;20053;-79
2023/06/17 06:01:06;;;;;;;87.75;81.07;;;;;;;21.47;100.00;100352.38;6091579;23;20022;-80
2023/06/17 06:03:33;;;;;;;94.65;87.82;;;;;;;21.37;100.00;100347.88;6092180;23;20029;-79
2023/06/17 06:06:00;;;;;;;90.53;83.72;;;;;;;21.49;100.00;100350.19;6092426;23;20364;-79
2023/06/17 06:08:27;;;;;;;88.82;82.00;;;;;;;21.61;100.00;100350.59;6092290;23;20026;-79
2023/06/17 06:10:54;;;;;;;83.72;77.53;;;;;;;21.82;100.00;100350.34;6090704;23;20377;-79
2023/06/17 06:13:21;;;;;;;83.18;76.63;;;;;;;21.78;100.00;100344.69;6092149;23;20021;-79
2023/06/17 06:15:49;;;;;;;79.72;73.50;;;;;;;21.62;100.00;100348.69;6092230;23;20030;-79
2023/06/17 06:18:16;;;;;;;86.68;79.68;;;;;;;21.64;100.00;100350.00;6091910;23;20457;-79
2023/06/17 06:20:43;;;;;;;83.63;77.20;;;;;;;22.06;100.00;100353.81;6092103;23;20029;-79
2023/06/17 06:23:10;;;;;;;79.57;73.28;;;;;;;21.58;100.00;100350.38;6091861;23;20022;-79
2023/06/17 06:25:37;;;;;;;78.28;72.22;;;;;;;21.80;100.00;100350.63;6092535;23;20026;-79
2023/06/17 06:28:05;;;;;;;78.50;72.28;;;;;;;21.82;100.00;100348.44;6092401;23;20022;-79
2023/06/17 06:30:32;;;;;;;80.10;73.97;;;;;;;21.94;100.00;100348.03;6092652;23;20491;-79
2023/06/17 06:33:00;;;;;;;81.38;74.68;;;;;;;21.84;100.00;100348.13;6092583;23;20073;-79
2023/06/17 06:35:29;;;;;;;86.35;79.93;;;;;;;21.88;100.00;100346.50;6089320;23;20054;-78
2023/06/17 06:37:56;;;;;;;78.97;72.93;;;;;;;21.88;100.00;100349.19;6090281;23;20085;-79
2023/06/17 06:40:23;;;;;;;78.00;71.80;;;;;;;21.82;100.00;100350.34;6090573;23;20092;-77
2023/06/17 06:42:50;;;;;;;78.82;72.65;;;;;;;22.12;100.00;100352.66;6090455;23;20025;-79
2023/06/17 06:45:17;;;;;;;67.07;61.78;;;;;;;22.37;100.00;100351.50;6090969;23;20417;-77
2023/06/17 06:47:43;;;;;;;75.43;69.78;;;;;;;21.87;100.00;100361.06;6089884;23;20022;-77
2023/06/17 06:50:12;;;;;;;78.82;72.70;;;;;;;21.54;100.00;100354.72;6091951;23;20030;-77
2023/06/17 06:52:39;;;;;;;75.90;69.93;;;;;;;21.85;100.00;100364.09;6091710;23;20024;-77
2023/06/17 06:55:06;;;;;;;73.10;67.55;;;;;;;21.96;100.00;100354.72;6093021;23;20049;-77
2023/06/17 06:57:33;;;;;;;70.57;65.13;;;;;;;22.03;100.00;100351.69;6092617;23;20030;-77
2023/06/17 07:00:00;;;;;;;72.78;67.03;;;;;;;22.01;100.00;100359.28;6092713;23;21108;-77
2023/06/17 07:02:26;;;;;;;65.32;60.33;;;;;;;21.93;100.00;100351.81;6092304;23;20195;-77
2023/06/17 07:04:54;;;;;;;70.68;65.32;;;;;;;22.38;100.00;100353.09;6092122;23;20341;-74
2023/06/17 07:07:23;;;;;;;63.63;58.53;;;;;;;22.29;100.00;100346.75;6092291;23;20027;-74
2023/06/17 07:09:50;;;;;;;66.70;61.50;;;;;;;22.62;100.00;100347.59;6092437;23;20024;-74
2023/06/17 07:12:17;;;;;;;61.83;56.63;;;;;;;22.86;100.00;100347.47;6091754;23;20019;-74
2023/06/17 07:14:44;;;;;;;75.25;69.00;;;;;;;22.41;100.00;100355.22;6092914;23;20030;-73
2023/06/17 07:17:11;;;;;;;58.75;54.03;;;;;;;22.37;100.00;100348.00;6094285;23;20503;-74
2023/06/17 07:19:37;;;;;;;64.03;58.67;;;;;;;22.40;100.00;100342.00;6094178;23;20030;-74
2023/06/17 07:22:05;;;;;;;61.78;56.47;;;;;;;22.43;100.00;100338.69;6094166;23;20026;-74
2023/06/17 07:24:33;;;;;;;53.47;48.67;;;;;;;22.89;100.00;100339.84;6094111;23;20384;-77
2023/06/17 07:27:00;;;;;;;51.95;47.63;;;;;;;23.01;100.00;100334.81;6093971;23;20409;-77
2023/06/17 07:29:27;;;;;;;45.35;41.25;;;;;;;23.15;100.00;100334.81;6093534;23;20491;-77
2023/06/17 07:31:54;;;;;;;44.05;40.15;;;;;;;23.02;100.00;100328.28;6093783;23;20022;-77
2023/06/17 07:34:21;;;;;;;50.75;46.45;;;;;;;23.31;100.00;100328.00;6093330;23;20050;-77
2023/06/17 07:36:52;;;;;;;49.05;44.75;;;;;;;23.25;100.00;100332.72;6094249;23;20077;-77
2023/06/17 07:39:19;;;;;;;52.78;48.35;;;;;;;23.39;100.00;100335.44;6094979;23;20015;-77
2023/06/17 07:41:47;;;;;;;52.33;47.92;;;;;;;22.73;100.00;100336.63;6093639;23;20022;-79
2023/06/17 07:44:14;;;;;;;52.90;48.47;;;;;;;22.45;100.00;100338.38;6094326;23;20472;-79
2023/06/17 07:46:41;;;;;;;54.97;50.17;;;;;;;23.19;100.00;100338.53;6093465;23;20018;-76
2023/06/17 07:49:08;;;;;;;53.58;48.78;;;;;;;22.78;100.00;100341.91;6093677;23;20023;-77
2023/06/17 07:51:35;;;;;;;46.17;41.90;;;;;;;23.45;100.00;100334.25;6094565;23;20372;-77
2023/06/17 07:54:02;;;;;;;47.97;43.67;;;;;;;23.35;100.00;100339.84;6093419;23;20085;-77
2023/06/17 07:56:29;;;;;;;57.22;52.25;;;;;;;24.13;100.00;100334.47;6093174;23;20022;-77
2023/06/17 07:58:57;;;;;;;39.42;36.03;;;;;;;23.75;100.00;100329.31;6093479;23;20465;-77
2023/06/17 08:01:24;;;;;;;41.92;38.33;;;;;;;23.90;100.00;100330.91;6094210;23;20391;-77
2023/06/17 08:03:51;;;;;;;39.10;35.60;;;;;;;23.86;100.00;100327.22;6093412;23;20027;-77
2023/06/17 08:06:18;;;;;;;39.30;36.05;;;;;;;24.18;100.00;100326.25;6092006;23;20025;-77
2023/06/17 08:08:45;;;;;;;40.72;37.10;;;;;;;23.02;100.00;100328.28;6093440;23;20365;-77
2023/06/17 08:11:12;;;;;;;36.50;33.33;;;;;;;23.91;100.00;100327.91;6092528;23;20029;-77
2023/06/17 08:13:39;;;;;;;38.20;34.90;;;;;;;23.55;100.00;100325.09;6092797;23;20022;-77
2023/06/17 08:16:08;;;;;;;34.83;31.90;;;;;;;24.29;100.00;100318.66;6092702;23;20483;-77
2023/06/17 08:18:35;;;;;;;31.85;28.85;;;;;;;24.22;100.00;100325.31;6092805;23;20023;-74
2023/06/17 08:21:02;;;;;;;30.92;27.48;;;;;;;24.76;100.00;100325.41;6093632;23;20380;-74
2023/06/17 08:23:29;;;;;;;34.25;31.20;;;;;;;24.92;100.00;100326.59;6093744;23;20360;-74
2023/06/17 08:25:56;;;;;;;32.05;29.25;;;;;;;23.90;100.00;100320.84;6093656;23;20436;-74
2023/06/17 08:28:23;;;;;;;32.88;30.08;;;;;;;23.69;100.00;100327.78;6092760;23;20026;-77
2023/06/17 08:30:51;;;;;;;37.15;33.72;;;;;;;23.95;100.00;100322.66;6093889;23;20397;-74
2023/06/17 08:33:21;;;;;;;112.43;69.90;;;;;;;24.90;100.00;100330.75;6092651;23;20064;-74
2023/06/17 08:35:48;;;;;;;85.53;58.95;;;;;;;25.24;100.00;100324.72;6093281;23;20026;-77
2023/06/17 08:38:15;;;;;;;33.40;30.30;;;;;;;24.56;100.00;100331.34;6092666;23;20101;-77
2023/06/17 08:40:45;;;;;;;31.48;28.75;;;;;;;24.47;100.00;100328.56;6093099;23;20350;-73
2023/06/17 08:43:17;;;;;;;33.55;30.77;;;;;;;22.83;100.00;100342.66;6093882;23;20022;-76
2023/06/17 08:45:47;;;;;;;37.00;33.53;;;;;;;23.75;100.00;100337.44;6093945;23;20377;-78
2023/06/17 08:48:14;;;;;;;37.58;34.28;;;;;;;23.67;100.00;100340.88;6093861;23;20026;-77
2023/06/17 08:50:44;;;;;;;39.08;35.50;;;;;;;24.23;100.00;100334.25;6093727;23;20101;-74
2023/06/17 08:53:13;;;;;;;34.95;31.95;;;;;;;23.84;100.00;100343.75;6092938;23;20023;-77
2023/06/17 08:55:40;;;;;;;35.08;32.05;;;;;;;23.88;100.00;100338.56;6092817;23;20057;-77
2023/06/17 08:58:08;;;;;;;41.15;36.65;;;;;;;25.10;100.00;100324.78;6092821;23;20101;-73
2023/06/17 09:00:35;;;;;;;34.63;31.33;;;;;;;25.62;100.00;100339.72;6093536;23;20483;-74
2023/06/17 09:03:06;;;;;;;30.77;28.20;;;;;;;25.66;100.00;100336.06;6090088;23;20105;-78
2023/06/17 09:05:33;;;;;;;31.25;28.45;;;;;;;25.18;100.00;100339.56;6092202;23;20077;-77
2023/06/17 09:08:02;;;;;;;32.90;30.02;;;;;;;25.49;100.00;100342.22;6091681;23;20596;-78
2023/06/17 09:10:29;;;;;;;28.40;26.10;;;;;;;25.01;100.00;100337.50;6091058;23;20022;-76
2023/06/17 09:12:59;;;;;;;31.65;28.88;;;;;;;25.49;100.00;100336.00;6093123;23;20023;-76
2023/06/17 09:15:26;;;;;;;31.70;28.75;;;;;;;25.00;100.00;100335.94;6093441;23;20090;-77
2023/06/17 09:17:53;;;;;;;32.33;29.52;;;;;;;24.75;100.00;100337.38;6093363;23;20018;-77
2023/06/17 09:20:24;;;;;;;32.70;29.98;;;;;;;23.86;100.00;100335.34;6092788;23;20416;-77
2023/06/17 09:22:51;;;;;;;34.15;31.10;;;;;;;24.11;100.00;100332.06;6092394;23;20022;-77
2023/06/17 09:25:19;;;;;;;33.72;30.75;;;;;;;24.65;100.00;100335.69;6087146;23;20487;-77
2023/06/17 09:27:47;;;;;;;31.98;29.08;;;;;;;24.77;100.00;100332.44;6088130;23;20030;-77
2023/06/17 09:30:15;;;;;;;32.38;29.38;;;;;;;24.92;100.00;100331.25;6088392;23;20037;-77
2023/06/17 09:32:42;;;;;;;31.83;28.85;;;;;;;24.66;100.00;100329.19;6088740;23;20054;-78
2023/06/17 09:35:15;;;;;;;30.50;27.95;;;;;;;24.58;100.00;100323.69;6089797;23;20360;-77
2023/06/17 09:37:44;;;;;;;30.33;27.77;;;;;;;24.68;100.00;100328.84;6088703;23;20036;-77
2023/06/17 09:40:12;;;;;;;31.33;28.52;;;;;;;24.96;100.00;100328.69;6089228;23;20031;-77
2023/06/17 09:42:43;;;;;;;36.00;32.78;;;;;;;25.33;100.00;100331.00;6090207;23;20023;-77
2023/06/17 09:45:12;;;;;;;31.52;28.80;;;;;;;25.68;100.00;100325.66;6089858;23;20109;-78
2023/06/17 09:47:40;;;;;;;29.88;27.38;;;;;;;25.83;100.00;100318.19;6089818;23;20058;-77
2023/06/17 09:50:12;;;;;;;30.30;27.75;;;;;;;25.35;100.00;100320.59;6089337;23;20488;-77
2023/06/17 09:52:40;;;;;;;;;;;;;;;25.63;100.00;100320.38;6089730;23;20026;-73
2023/06/17 09:55:09;;;;;;;31.13;28.23;;;;;;;25.77;100.00;100323.75;6088777;23;19940;-77
2023/06/17 09:57:39;;;;;;;29.45;26.98;;;;;;;26.19;100.00;100315.97;6088447;23;20034;-77
2023/06/17 10:00:11;;;;;;;30.60;28.00;;;;;;;26.32;100.00;100324.28;6088267;23;20081;-77
2023/06/17 10:02:40;;;;;;;31.35;28.63;;;;;;;26.47;100.00;100313.69;6089593;23;20495;-74
2023/06/17 10:05:10;;;;;;;29.45;26.77;;;;;;;26.46;100.00;100314.84;6089256;23;20104;-77
2023/06/17 10:07:41;;;;;;;27.48;25.02;;;;;;;26.54;100.00;100315.16;6089281;23;20527;-77
2023/06/17 10:10:11;;;;;;;28.20;25.83;;;;;;;26.45;100.00;100315.16;6088925;23;20112;-77
2023/06/17 10:12:44;;;;;;;27.52;25.33;;;;;;;26.53;100.00;100311.66;6089161;23;20432;-77
2023/06/17 10:15:13;;;;;;;28.38;26.27;;;;;;;25.75;100.00;100308.84;6088975;23;20145;-77
2023/06/17 10:17:43;;;;;;;30.45;27.98;;;;;;;26.07;100.00;100307.66;6089394;23;20331;-78
2023/06/17 10:20:12;;;;;;;28.98;26.67;;;;;;;26.19;100.00;100307.81;6088585;23;20105;-78
2023/06/17 10:22:40;;;;;;;31.63;28.83;;;;;;;27.76;100.00;100299.94;6089106;23;20026;-74
2023/06/17 10:25:10;;;;;;;27.98;25.80;;;;;;;26.31;100.00;100312.59;6088993;23;20527;-77
2023/06/17 10:27:37;;;;;;;28.95;26.65;;;;;;;26.83;100.00;100303.56;6088727;23;20030;-77
2023/06/17 10:30:25;;;;;;;27.40;25.25;;;;;;;26.45;100.00;100302.34;6087854;23;20421;-74
2023/06/17 10:32:59;;;;;;;26.20;24.02;;;;;;;26.38;100.00;100299.31;6088012;23;20461;-74
2023/06/17 10:35:37;;;;;;;29.67;26.80;;;;;;;26.89;100.00;100294.91;6088627;23;20030;-73
2023/06/17 10:38:04;;;;;;;26.65;24.35;;;;;;;26.40;100.00;100297.06;6087703;23;20085;-74
2023/06/17 10:40:35;;;;;;;29.95;26.95;;;;;;;26.61;100.00;100294.50;6087606;23;20252;-75
2023/06/17 10:43:20;;;;;;;26.70;24.40;;;;;;;26.41;100.00;100295.94;6086013;23;20030;-73
2023/06/17 10:45:53;;;;;;;26.15;23.73;;;;;;;26.48;100.00;100298.19;6087456;23;20028;-74
2023/06/17 10:48:29;;;;;;;28.60;26.10;;;;;;;26.33;100.00;100298.69;6087621;23;20032;-73
2023/06/17 10:50:57;;;;;;;29.00;26.55;;;;;;;25.23;100.00;100285.06;6090608;23;20354;-75
2023/06/17 10:53:29;;;;;;;30.73;27.83;;;;;;;26.40;100.00;100288.91;6090145;23;20026;-74
2023/06/17 10:55:57;;;;;;;;;;;;;;;26.43;100.00;100292.91;6091439;23;20488;-73
2023/06/17 10:58:30;;;;;;;27.98;25.70;;;;;;;25.61;100.00;100284.53;6090187;23;19921;-73
2023/06/17 11:01:03;;;;;;;29.17;26.98;;;;;;;26.66;100.00;100290.81;6089249;23;20029;-73
2023/06/17 11:03:30;;;;;;;29.27;25.20;;;;;;;26.70;100.00;100295.28;6089696;23;20082;-74
2023/06/17 11:06:01;;;;;;;25.40;23.05;;;;;;;26.49;100.00;100294.38;6089044;23;20376;-74
2023/06/17 11:08:29;;;;;;;26.98;24.67;;;;;;;25.97;100.00;100291.66;6089807;23;20022;-73